sensor_id;sensor_type;location;lat;lon;timestamp;P1;durP1;ratioP1;P2;durP2;ratioP2
5499;SDS011;2772;42.700;23.304;2022-11-04T00:00:48;38.17;;;17.57;;
5499;SDS011;2772;42.700;23.304;2022-11-04T00:03:15;37.53;;;19.60;;
5499;SDS011;2772;42.700;23.304;2022-11-04T00:05:42;42.53;;;19.87;;
5499;SDS011;2772;42.700;23.304;2022-11-04T00:08:09;34.80;;;18.90;;
5499;SDS011;2772;42.700;23.304;2022-11-04T00:10:54;50.37;;;21.87;;
5499;SDS011;2772;42.700;23.304;2022-11-04T00:13:38;36.00;;;19.80;;
5499;SDS011;2772;42.700;23.304;2022-11-04T00:16:05;30.03;;;15.87;;
5499;SDS011;2772;42.700;23.304;2022-11-04T00:18:50;30.40;;;15.97;;
5499;SDS011;2772;42.700;23.304;2022-11-04T00:21:16;46.00;;;20.00;;
5499;SDS011;2772;42.700;23.304;2022-11-04T00:24:00;31.83;;;15.67;;
5499;SDS011;2772;42.700;23.304;2022-11-04T00:26:46;48.60;;;19.27;;
5499;SDS011;2772;42.700;23.304;2022-11-04T00:29:30;35.90;;;17.10;;
5499;SDS011;2772;42.700;23.304;2022-11-04T00:31:57;35.40;;;16.90;;
5499;SDS011;2772;42.700;23.304;2022-11-04T00:34:41;46.10;;;20.50;;
5499;SDS011;2772;42.700;23.304;2022-11-04T00:37:08;35.30;;;16.67;;
5499;SDS011;2772;42.700;23.304;2022-11-04T00:39:35;38.97;;;16.93;;
5499;SDS011;2772;42.700;23.304;2022-11-04T00:42:03;30.47;;;15.10;;
5499;SDS011;2772;42.700;23.304;2022-11-04T00:44:30;30.83;;;15.73;;
5499;SDS011;2772;42.700;23.304;2022-11-04T00:46:57;39.87;;;16.03;;
5499;SDS011;2772;42.700;23.304;2022-11-04T00:49:23;35.07;;;16.90;;
5499;SDS011;2772;42.700;23.304;2022-11-04T00:51:50;28.57;;;15.57;;
5499;SDS011;2772;42.700;23.304;2022-11-04T00:54:17;35.83;;;17.23;;
5499;SDS011;2772;42.700;23.304;2022-11-04T00:56:43;29.03;;;16.93;;
5499;SDS011;2772;42.700;23.304;2022-11-04T00:59:14;28.67;;;15.10;;
5499;SDS011;2772;42.700;23.304;2022-11-04T01:01:41;37.90;;;16.67;;
5499;SDS011;2772;42.700;23.304;2022-11-04T01:04:08;35.13;;;16.73;;
5499;SDS011;2772;42.700;23.304;2022-11-04T01:06:35;32.80;;;15.53;;
5499;SDS011;2772;42.700;23.304;2022-11-04T01:09:03;30.70;;;16.10;;
5499;SDS011;2772;42.700;23.304;2022-11-04T01:11:32;31.27;;;15.13;;
5499;SDS011;2772;42.700;23.304;2022-11-04T01:13:59;42.47;;;17.37;;
5499;SDS011;2772;42.700;23.304;2022-11-04T01:16:28;36.83;;;15.47;;
5499;SDS011;2772;42.700;23.304;2022-11-04T01:18:55;32.00;;;16.60;;
5499;SDS011;2772;42.700;23.304;2022-11-04T01:21:23;43.57;;;17.20;;
5499;SDS011;2772;42.700;23.304;2022-11-04T01:23:49;31.97;;;16.60;;
5499;SDS011;2772;42.700;23.304;2022-11-04T01:26:17;33.17;;;16.20;;
5499;SDS011;2772;42.700;23.304;2022-11-04T01:28:45;33.43;;;16.57;;
5499;SDS011;2772;42.700;23.304;2022-11-04T01:31:12;35.17;;;16.43;;
5499;SDS011;2772;42.700;23.304;2022-11-04T01:33:41;28.53;;;15.57;;
5499;SDS011;2772;42.700;23.304;2022-11-04T01:36:09;35.63;;;14.40;;
5499;SDS011;2772;42.700;23.304;2022-11-04T01:38:36;29.10;;;15.33;;
5499;SDS011;2772;42.700;23.304;2022-11-04T01:41:04;33.50;;;14.90;;
5499;SDS011;2772;42.700;23.304;2022-11-04T01:43:41;29.53;;;15.40;;
5499;SDS011;2772;42.700;23.304;2022-11-04T01:46:09;35.57;;;15.77;;
5499;SDS011;2772;42.700;23.304;2022-11-04T01:48:44;34.07;;;16.63;;
5499;SDS011;2772;42.700;23.304;2022-11-04T01:51:10;33.33;;;15.57;;
5499;SDS011;2772;42.700;23.304;2022-11-04T01:53:39;38.53;;;16.10;;
5499;SDS011;2772;42.700;23.304;2022-11-04T01:56:09;30.57;;;15.87;;
5499;SDS011;2772;42.700;23.304;2022-11-04T01:58:38;31.40;;;14.90;;
5499;SDS011;2772;42.700;23.304;2022-11-04T02:01:08;28.90;;;14.97;;
5499;SDS011;2772;42.700;23.304;2022-11-04T02:03:37;29.10;;;14.70;;
5499;SDS011;2772;42.700;23.304;2022-11-04T02:06:11;30.80;;;15.23;;
5499;SDS011;2772;42.700;23.304;2022-11-04T02:08:38;44.07;;;16.77;;
5499;SDS011;2772;42.700;23.304;2022-11-04T02:11:06;30.93;;;15.17;;
5499;SDS011;2772;42.700;23.304;2022-11-04T02:13:33;33.73;;;15.90;;
5499;SDS011;2772;42.700;23.304;2022-11-04T02:16:03;27.43;;;16.00;;
5499;SDS011;2772;42.700;23.304;2022-11-04T02:18:45;25.00;;;14.40;;
5499;SDS011;2772;42.700;23.304;2022-11-04T02:27:34;29.33;;;15.67;;
5499;SDS011;2772;42.700;23.304;2022-11-04T02:30:11;32.33;;;15.60;;
5499;SDS011;2772;42.700;23.304;2022-11-04T02:32:50;30.43;;;15.93;;
5499;SDS011;2772;42.700;23.304;2022-11-04T02:35:29;27.63;;;14.70;;
5499;SDS011;2772;42.700;23.304;2022-11-04T02:38:07;34.50;;;15.30;;
5499;SDS011;2772;42.700;23.304;2022-11-04T02:40:40;26.57;;;14.13;;
5499;SDS011;2772;42.700;23.304;2022-11-04T02:43:11;27.50;;;14.70;;
5499;SDS011;2772;42.700;23.304;2022-11-04T02:45:48;25.03;;;15.40;;
5499;SDS011;2772;42.700;23.304;2022-11-04T02:48:19;37.17;;;16.13;;
5499;SDS011;2772;42.700;23.304;2022-11-04T02:50:53;32.63;;;14.97;;
5499;SDS011;2772;42.700;23.304;2022-11-04T02:53:28;32.37;;;15.07;;
5499;SDS011;2772;42.700;23.304;2022-11-04T02:55:58;38.97;;;15.63;;
5499;SDS011;2772;42.700;23.304;2022-11-04T02:58:29;32.70;;;16.40;;
5499;SDS011;2772;42.700;23.304;2022-11-04T03:01:01;35.13;;;14.87;;
5499;SDS011;2772;42.700;23.304;2022-11-04T03:03:32;34.97;;;15.90;;
5499;SDS011;2772;42.700;23.304;2022-11-04T03:06:02;29.87;;;14.47;;
5499;SDS011;2772;42.700;23.304;2022-11-04T03:08:37;26.93;;;14.30;;
5499;SDS011;2772;42.700;23.304;2022-11-04T03:11:05;27.30;;;15.23;;
5499;SDS011;2772;42.700;23.304;2022-11-04T03:13:40;26.80;;;15.37;;
5499;SDS011;2772;42.700;23.304;2022-11-04T03:16:14;33.77;;;15.80;;
5499;SDS011;2772;42.700;23.304;2022-11-04T03:18:48;35.17;;;16.70;;
5499;SDS011;2772;42.700;23.304;2022-11-04T03:21:23;30.47;;;16.70;;
5499;SDS011;2772;42.700;23.304;2022-11-04T03:23:53;34.23;;;15.43;;
5499;SDS011;2772;42.700;23.304;2022-11-04T03:26:21;32.57;;;16.67;;
5499;SDS011;2772;42.700;23.304;2022-11-04T03:28:56;27.93;;;15.37;;
5499;SDS011;2772;42.700;23.304;2022-11-04T03:31:35;27.73;;;15.57;;
5499;SDS011;2772;42.700;23.304;2022-11-04T03:34:09;33.83;;;15.20;;
5499;SDS011;2772;42.700;23.304;2022-11-04T03:36:36;29.03;;;14.60;;
5499;SDS011;2772;42.700;23.304;2022-11-04T03:39:03;25.80;;;15.73;;
5499;SDS011;2772;42.700;23.304;2022-11-04T03:41:30;27.67;;;14.50;;
5499;SDS011;2772;42.700;23.304;2022-11-04T03:44:01;26.50;;;14.80;;
5499;SDS011;2772;42.700;23.304;2022-11-04T03:46:28;27.10;;;13.87;;
5499;SDS011;2772;42.700;23.304;2022-11-04T03:48:57;30.13;;;15.33;;
5499;SDS011;2772;42.700;23.304;2022-11-04T03:51:25;26.07;;;15.30;;
5499;SDS011;2772;42.700;23.304;2022-11-04T03:53:52;31.83;;;14.77;;
5499;SDS011;2772;42.700;23.304;2022-11-04T03:56:22;35.90;;;15.30;;
5499;SDS011;2772;42.700;23.304;2022-11-04T03:58:59;28.77;;;16.00;;
5499;SDS011;2772;42.700;23.304;2022-11-04T04:01:38;30.70;;;16.33;;
5499;SDS011;2772;42.700;23.304;2022-11-04T04:04:15;31.03;;;16.17;;
5499;SDS011;2772;42.700;23.304;2022-11-04T04:06:48;30.37;;;16.10;;
5499;SDS011;2772;42.700;23.304;2022-11-04T04:09:19;24.13;;;15.43;;
5499;SDS011;2772;42.700;23.304;2022-11-04T04:11:50;32.60;;;15.83;;
5499;SDS011;2772;42.700;23.304;2022-11-04T04:14:21;30.50;;;15.33;;
5499;SDS011;2772;42.700;23.304;2022-11-04T04:17:08;28.43;;;15.10;;
5499;SDS011;2772;42.700;23.304;2022-11-04T04:19:43;36.47;;;15.77;;
5499;SDS011;2772;42.700;23.304;2022-11-04T04:22:14;35.77;;;16.33;;
5499;SDS011;2772;42.700;23.304;2022-11-04T04:24:45;41.60;;;15.97;;
5499;SDS011;2772;42.700;23.304;2022-11-04T04:27:32;42.27;;;17.90;;
5499;SDS011;2772;42.700;23.304;2022-11-04T04:30:02;28.50;;;16.90;;
5499;SDS011;2772;42.700;23.304;2022-11-04T04:32:32;33.93;;;16.20;;
5499;SDS011;2772;42.700;23.304;2022-11-04T04:35:05;34.20;;;17.20;;
5499;SDS011;2772;42.700;23.304;2022-11-04T04:37:51;33.20;;;15.97;;
5499;SDS011;2772;42.700;23.304;2022-11-04T04:40:40;34.03;;;17.50;;
5499;SDS011;2772;42.700;23.304;2022-11-04T04:43:26;30.20;;;16.57;;
5499;SDS011;2772;42.700;23.304;2022-11-04T04:46:10;45.13;;;17.30;;
5499;SDS011;2772;42.700;23.304;2022-11-04T04:48:38;34.63;;;16.80;;
5499;SDS011;2772;42.700;23.304;2022-11-04T04:51:06;31.10;;;16.83;;
5499;SDS011;2772;42.700;23.304;2022-11-04T04:53:33;35.93;;;17.40;;
5499;SDS011;2772;42.700;23.304;2022-11-04T04:56:00;34.20;;;16.70;;
5499;SDS011;2772;42.700;23.304;2022-11-04T04:58:27;34.07;;;17.00;;
5499;SDS011;2772;42.700;23.304;2022-11-04T05:00:53;41.93;;;16.47;;
5499;SDS011;2772;42.700;23.304;2022-11-04T05:03:20;31.30;;;16.80;;
5499;SDS011;2772;42.700;23.304;2022-11-04T05:05:47;39.53;;;17.00;;
5499;SDS011;2772;42.700;23.304;2022-11-04T05:08:15;38.10;;;18.13;;
5499;SDS011;2772;42.700;23.304;2022-11-04T05:10:42;27.97;;;16.90;;
5499;SDS011;2772;42.700;23.304;2022-11-04T05:13:08;35.83;;;18.33;;
5499;SDS011;2772;42.700;23.304;2022-11-04T05:15:54;51.93;;;19.60;;
5499;SDS011;2772;42.700;23.304;2022-11-04T05:18:21;38.47;;;17.40;;
5499;SDS011;2772;42.700;23.304;2022-11-04T05:20:48;37.50;;;18.27;;
5499;SDS011;2772;42.700;23.304;2022-11-04T05:23:17;42.60;;;19.13;;
5499;SDS011;2772;42.700;23.304;2022-11-04T05:25:44;40.43;;;18.73;;
5499;SDS011;2772;42.700;23.304;2022-11-04T05:28:10;31.07;;;18.70;;
5499;SDS011;2772;42.700;23.304;2022-11-04T05:30:37;32.00;;;16.83;;
5499;SDS011;2772;42.700;23.304;2022-11-04T05:33:04;32.57;;;19.27;;
5499;SDS011;2772;42.700;23.304;2022-11-04T05:35:31;35.07;;;18.70;;
5499;SDS011;2772;42.700;23.304;2022-11-04T05:37:58;37.03;;;19.10;;
5499;SDS011;2772;42.700;23.304;2022-11-04T05:40:27;35.53;;;17.83;;
5499;SDS011;2772;42.700;23.304;2022-11-04T05:42:56;39.30;;;18.73;;
5499;SDS011;2772;42.700;23.304;2022-11-04T05:45:23;41.90;;;21.20;;
5499;SDS011;2772;42.700;23.304;2022-11-04T05:47:55;41.80;;;23.07;;
5499;SDS011;2772;42.700;23.304;2022-11-04T05:50:22;46.23;;;23.70;;
5499;SDS011;2772;42.700;23.304;2022-11-04T05:52:49;47.67;;;22.20;;
5499;SDS011;2772;42.700;23.304;2022-11-04T05:55:18;41.20;;;21.93;;
5499;SDS011;2772;42.700;23.304;2022-11-04T05:57:47;44.37;;;23.27;;
5499;SDS011;2772;42.700;23.304;2022-11-04T06:00:14;49.90;;;23.43;;
5499;SDS011;2772;42.700;23.304;2022-11-04T06:02:41;58.00;;;24.77;;
5499;SDS011;2772;42.700;23.304;2022-11-04T06:05:08;56.10;;;25.20;;
5499;SDS011;2772;42.700;23.304;2022-11-04T06:07:35;50.37;;;23.70;;
5499;SDS011;2772;42.700;23.304;2022-11-04T06:10:02;46.97;;;25.60;;
5499;SDS011;2772;42.700;23.304;2022-11-04T06:12:29;49.67;;;25.00;;
5499;SDS011;2772;42.700;23.304;2022-11-04T06:14:57;56.77;;;25.30;;
5499;SDS011;2772;42.700;23.304;2022-11-04T06:17:24;58.47;;;25.37;;
5499;SDS011;2772;42.700;23.304;2022-11-04T06:19:50;51.63;;;25.97;;
5499;SDS011;2772;42.700;23.304;2022-11-04T06:22:17;56.43;;;26.43;;
5499;SDS011;2772;42.700;23.304;2022-11-04T06:24:44;55.07;;;28.00;;
5499;SDS011;2772;42.700;23.304;2022-11-04T06:27:11;55.90;;;26.70;;
5499;SDS011;2772;42.700;23.304;2022-11-04T06:29:38;70.33;;;25.70;;
5499;SDS011;2772;42.700;23.304;2022-11-04T06:32:07;56.23;;;26.37;;
5499;SDS011;2772;42.700;23.304;2022-11-04T06:34:34;52.73;;;26.00;;
5499;SDS011;2772;42.700;23.304;2022-11-04T06:37:01;53.53;;;24.53;;
5499;SDS011;2772;42.700;23.304;2022-11-04T06:39:28;52.87;;;25.50;;
5499;SDS011;2772;42.700;23.304;2022-11-04T06:41:55;43.50;;;24.77;;
5499;SDS011;2772;42.700;23.304;2022-11-04T06:44:22;65.90;;;27.87;;
5499;SDS011;2772;42.700;23.304;2022-11-04T06:46:49;60.60;;;28.48;;
5499;SDS011;2772;42.700;23.304;2022-11-04T06:49:18;54.20;;;26.17;;
5499;SDS011;2772;42.700;23.304;2022-11-04T06:51:47;58.87;;;26.23;;
5499;SDS011;2772;42.700;23.304;2022-11-04T06:54:14;44.30;;;25.67;;
5499;SDS011;2772;42.700;23.304;2022-11-04T06:56:42;55.87;;;26.60;;
5499;SDS011;2772;42.700;23.304;2022-11-04T06:59:09;56.00;;;25.17;;
5499;SDS011;2772;42.700;23.304;2022-11-04T07:01:40;55.67;;;26.27;;
5499;SDS011;2772;42.700;23.304;2022-11-04T07:04:07;54.87;;;26.17;;
5499;SDS011;2772;42.700;23.304;2022-11-04T07:06:36;50.10;;;26.30;;
5499;SDS011;2772;42.700;23.304;2022-11-04T07:09:02;55.20;;;25.80;;
5499;SDS011;2772;42.700;23.304;2022-11-04T07:11:30;47.80;;;25.30;;
5499;SDS011;2772;42.700;23.304;2022-11-04T07:13:57;45.30;;;25.70;;
5499;SDS011;2772;42.700;23.304;2022-11-04T07:16:24;45.13;;;24.77;;
5499;SDS011;2772;42.700;23.304;2022-11-04T07:18:52;45.60;;;25.50;;
5499;SDS011;2772;42.700;23.304;2022-11-04T07:21:19;53.33;;;26.93;;
5499;SDS011;2772;42.700;23.304;2022-11-04T07:23:48;47.73;;;24.70;;
5499;SDS011;2772;42.700;23.304;2022-11-04T07:26:15;43.97;;;24.03;;
5499;SDS011;2772;42.700;23.304;2022-11-04T07:28:42;48.10;;;26.10;;
5499;SDS011;2772;42.700;23.304;2022-11-04T07:31:10;41.70;;;24.10;;
5499;SDS011;2772;42.700;23.304;2022-11-04T07:33:38;47.87;;;27.00;;
5499;SDS011;2772;42.700;23.304;2022-11-04T07:36:05;48.70;;;25.23;;
5499;SDS011;2772;42.700;23.304;2022-11-04T07:38:34;45.20;;;24.90;;
5499;SDS011;2772;42.700;23.304;2022-11-04T07:41:02;46.73;;;24.80;;
5499;SDS011;2772;42.700;23.304;2022-11-04T07:43:29;49.80;;;25.20;;
5499;SDS011;2772;42.700;23.304;2022-11-04T07:46:00;51.53;;;25.57;;
5499;SDS011;2772;42.700;23.304;2022-11-04T07:48:27;48.07;;;25.10;;
5499;SDS011;2772;42.700;23.304;2022-11-04T07:50:55;49.20;;;26.63;;
5499;SDS011;2772;42.700;23.304;2022-11-04T07:53:22;53.20;;;27.20;;
5499;SDS011;2772;42.700;23.304;2022-11-04T07:55:49;41.80;;;24.83;;
5499;SDS011;2772;42.700;23.304;2022-11-04T07:58:17;43.57;;;24.27;;
5499;SDS011;2772;42.700;23.304;2022-11-04T08:00:44;47.33;;;23.97;;
5499;SDS011;2772;42.700;23.304;2022-11-04T08:03:13;48.67;;;24.00;;
5499;SDS011;2772;42.700;23.304;2022-11-04T08:05:41;49.17;;;25.53;;
5499;SDS011;2772;42.700;23.304;2022-11-04T08:08:08;42.33;;;25.47;;
5499;SDS011;2772;42.700;23.304;2022-11-04T08:10:34;42.30;;;24.70;;
5499;SDS011;2772;42.700;23.304;2022-11-04T08:13:01;43.13;;;24.83;;
5499;SDS011;2772;42.700;23.304;2022-11-04T08:15:30;52.00;;;26.40;;
5499;SDS011;2772;42.700;23.304;2022-11-04T08:17:56;43.37;;;23.97;;
5499;SDS011;2772;42.700;23.304;2022-11-04T08:20:23;45.77;;;24.70;;
5499;SDS011;2772;42.700;23.304;2022-11-04T08:22:50;45.70;;;23.37;;
5499;SDS011;2772;42.700;23.304;2022-11-04T08:25:17;45.10;;;24.13;;
5499;SDS011;2772;42.700;23.304;2022-11-04T08:27:43;42.70;;;24.43;;
5499;SDS011;2772;42.700;23.304;2022-11-04T08:30:11;45.23;;;22.93;;
5499;SDS011;2772;42.700;23.304;2022-11-04T08:32:39;43.40;;;23.33;;
5499;SDS011;2772;42.700;23.304;2022-11-04T08:35:07;46.90;;;23.47;;
5499;SDS011;2772;42.700;23.304;2022-11-04T08:37:36;40.87;;;23.53;;
5499;SDS011;2772;42.700;23.304;2022-11-04T08:40:03;49.80;;;24.03;;
5499;SDS011;2772;42.700;23.304;2022-11-04T08:42:31;42.13;;;23.60;;
5499;SDS011;2772;42.700;23.304;2022-11-04T08:44:57;50.13;;;25.10;;
5499;SDS011;2772;42.700;23.304;2022-11-04T08:47:24;48.70;;;28.07;;
5499;SDS011;2772;42.700;23.304;2022-11-04T08:49:55;56.63;;;29.23;;
5499;SDS011;2772;42.700;23.304;2022-11-04T08:52:22;42.03;;;25.53;;
5499;SDS011;2772;42.700;23.304;2022-11-04T08:54:49;43.07;;;24.50;;
5499;SDS011;2772;42.700;23.304;2022-11-04T08:57:18;41.27;;;23.20;;
5499;SDS011;2772;42.700;23.304;2022-11-04T08:59:45;48.97;;;25.57;;
5499;SDS011;2772;42.700;23.304;2022-11-04T09:02:12;42.23;;;23.63;;
5499;SDS011;2772;42.700;23.304;2022-11-04T09:04:40;50.50;;;23.97;;
5499;SDS011;2772;42.700;23.304;2022-11-04T09:07:08;37.77;;;22.73;;
5499;SDS011;2772;42.700;23.304;2022-11-04T09:09:35;45.93;;;24.70;;
5499;SDS011;2772;42.700;23.304;2022-11-04T09:12:07;41.87;;;23.90;;
5499;SDS011;2772;42.700;23.304;2022-11-04T09:14:34;44.90;;;24.70;;
5499;SDS011;2772;42.700;23.304;2022-11-04T09:17:01;50.27;;;22.80;;
5499;SDS011;2772;42.700;23.304;2022-11-04T09:19:28;47.50;;;25.37;;
5499;SDS011;2772;42.700;23.304;2022-11-04T09:21:54;61.30;;;25.43;;
5499;SDS011;2772;42.700;23.304;2022-11-04T09:24:22;44.10;;;24.60;;
5499;SDS011;2772;42.700;23.304;2022-11-04T09:26:49;43.00;;;24.57;;
5499;SDS011;2772;42.700;23.304;2022-11-04T09:29:16;46.20;;;24.80;;
5499;SDS011;2772;42.700;23.304;2022-11-04T09:31:43;44.67;;;23.83;;
5499;SDS011;2772;42.700;23.304;2022-11-04T09:34:09;48.03;;;25.63;;
5499;SDS011;2772;42.700;23.304;2022-11-04T09:36:36;45.60;;;24.30;;
5499;SDS011;2772;42.700;23.304;2022-11-04T09:39:03;52.00;;;25.23;;
5499;SDS011;2772;42.700;23.304;2022-11-04T09:44:39;38.20;;;22.40;;
5499;SDS011;2772;42.700;23.304;2022-11-04T09:47:13;43.70;;;22.60;;
5499;SDS011;2772;42.700;23.304;2022-11-04T09:49:41;39.37;;;21.13;;
5499;SDS011;2772;42.700;23.304;2022-11-04T09:52:13;49.00;;;23.00;;
5499;SDS011;2772;42.700;23.304;2022-11-04T09:54:43;51.57;;;22.83;;
5499;SDS011;2772;42.700;23.304;2022-11-04T09:57:19;42.83;;;23.63;;
5499;SDS011;2772;42.700;23.304;2022-11-04T09:59:46;48.87;;;24.33;;
5499;SDS011;2772;42.700;23.304;2022-11-04T10:02:39;43.03;;;22.30;;
5499;SDS011;2772;42.700;23.304;2022-11-04T10:05:19;50.33;;;23.27;;
5499;SDS011;2772;42.700;23.304;2022-11-04T10:08:01;57.23;;;25.53;;
5499;SDS011;2772;42.700;23.304;2022-11-04T10:10:47;40.03;;;22.57;;
5499;SDS011;2772;42.700;23.304;2022-11-04T10:13:26;43.67;;;23.00;;
5499;SDS011;2772;42.700;23.304;2022-11-04T10:16:07;51.27;;;22.10;;
5499;SDS011;2772;42.700;23.304;2022-11-04T10:18:51;45.37;;;22.70;;
5499;SDS011;2772;42.700;23.304;2022-11-04T10:21:32;47.63;;;22.67;;
5499;SDS011;2772;42.700;23.304;2022-11-04T10:24:11;37.90;;;23.87;;
5499;SDS011;2772;42.700;23.304;2022-11-04T10:26:44;39.40;;;23.60;;
5499;SDS011;2772;42.700;23.304;2022-11-04T10:29:15;40.43;;;22.10;;
5499;SDS011;2772;42.700;23.304;2022-11-04T10:31:50;33.90;;;20.20;;
5499;SDS011;2772;42.700;23.304;2022-11-04T10:34:22;35.00;;;20.20;;
5499;SDS011;2772;42.700;23.304;2022-11-04T10:36:54;29.33;;;17.93;;
5499;SDS011;2772;42.700;23.304;2022-11-04T10:39:25;29.67;;;17.27;;
5499;SDS011;2772;42.700;23.304;2022-11-04T10:41:54;26.87;;;16.13;;
5499;SDS011;2772;42.700;23.304;2022-11-04T10:44:25;27.90;;;16.60;;
5499;SDS011;2772;42.700;23.304;2022-11-04T10:46:58;25.63;;;14.60;;
5499;SDS011;2772;42.700;23.304;2022-11-04T10:52:21;29.47;;;15.43;;
5499;SDS011;2772;42.700;23.304;2022-11-04T10:54:49;27.23;;;15.53;;
5499;SDS011;2772;42.700;23.304;2022-11-04T10:57:16;35.70;;;15.43;;
5499;SDS011;2772;42.700;23.304;2022-11-04T10:59:53;31.67;;;16.03;;
5499;SDS011;2772;42.700;23.304;2022-11-04T11:05:18;36.73;;;16.80;;
5499;SDS011;2772;42.700;23.304;2022-11-04T11:07:49;30.13;;;16.93;;
5499;SDS011;2772;42.700;23.304;2022-11-04T11:10:18;33.23;;;15.93;;
5499;SDS011;2772;42.700;23.304;2022-11-04T11:12:51;25.37;;;15.53;;
5499;SDS011;2772;42.700;23.304;2022-11-04T11:15:32;30.90;;;17.88;;
5499;SDS011;2772;42.700;23.304;2022-11-04T11:18:11;38.67;;;17.77;;
5499;SDS011;2772;42.700;23.304;2022-11-04T11:20:41;36.30;;;17.33;;
5499;SDS011;2772;42.700;23.304;2022-11-04T11:26:04;28.80;;;17.03;;
5499;SDS011;2772;42.700;23.304;2022-11-04T11:28:33;33.37;;;16.70;;
5499;SDS011;2772;42.700;23.304;2022-11-04T11:31:05;24.80;;;14.50;;
5499;SDS011;2772;42.700;23.304;2022-11-04T11:33:44;32.13;;;14.70;;
5499;SDS011;2772;42.700;23.304;2022-11-04T11:36:15;34.50;;;17.00;;
5499;SDS011;2772;42.700;23.304;2022-11-04T11:38:58;30.07;;;16.40;;
5499;SDS011;2772;42.700;23.304;2022-11-04T11:41:29;27.83;;;15.53;;
5499;SDS011;2772;42.700;23.304;2022-11-04T11:44:03;31.90;;;15.90;;
5499;SDS011;2772;42.700;23.304;2022-11-04T11:46:34;33.67;;;16.53;;
5499;SDS011;2772;42.700;23.304;2022-11-04T11:49:10;25.40;;;15.90;;
5499;SDS011;2772;42.700;23.304;2022-11-04T11:51:49;39.73;;;17.10;;
5499;SDS011;2772;42.700;23.304;2022-11-04T11:54:19;30.50;;;15.13;;
5499;SDS011;2772;42.700;23.304;2022-11-04T11:56:49;38.40;;;15.77;;
5499;SDS011;2772;42.700;23.304;2022-11-04T11:59:23;35.10;;;15.33;;
5499;SDS011;2772;42.700;23.304;2022-11-04T12:02:01;27.30;;;16.30;;
5499;SDS011;2772;42.700;23.304;2022-11-04T12:04:42;28.33;;;14.80;;
5499;SDS011;2772;42.700;23.304;2022-11-04T12:07:11;25.13;;;16.60;;
5499;SDS011;2772;42.700;23.304;2022-11-04T12:09:49;40.37;;;23.40;;
5499;SDS011;2772;42.700;23.304;2022-11-04T12:12:29;32.60;;;16.87;;
5499;SDS011;2772;42.700;23.304;2022-11-04T12:15:21;27.40;;;14.83;;
5499;SDS011;2772;42.700;23.304;2022-11-04T12:18:04;36.73;;;15.70;;
5499;SDS011;2772;42.700;23.304;2022-11-04T12:20:46;28.03;;;14.73;;
5499;SDS011;2772;42.700;23.304;2022-11-04T12:23:19;35.57;;;14.03;;
5499;SDS011;2772;42.700;23.304;2022-11-04T12:25:53;25.58;;;14.85;;
5499;SDS011;2772;42.700;23.304;2022-11-04T12:28:30;27.37;;;12.80;;
5499;SDS011;2772;42.700;23.304;2022-11-04T12:31:08;25.60;;;13.70;;
5499;SDS011;2772;42.700;23.304;2022-11-04T12:33:46;24.20;;;12.43;;
5499;SDS011;2772;42.700;23.304;2022-11-04T12:36:32;29.30;;;13.77;;
5499;SDS011;2772;42.700;23.304;2022-11-04T12:39:16;22.87;;;12.70;;
5499;SDS011;2772;42.700;23.304;2022-11-04T12:41:55;34.53;;;13.40;;
5499;SDS011;2772;42.700;23.304;2022-11-04T12:44:33;24.93;;;13.20;;
5499;SDS011;2772;42.700;23.304;2022-11-04T12:47:09;24.97;;;13.60;;
5499;SDS011;2772;42.700;23.304;2022-11-04T12:49:51;25.53;;;13.43;;
5499;SDS011;2772;42.700;23.304;2022-11-04T12:55:34;23.97;;;14.30;;
5499;SDS011;2772;42.700;23.304;2022-11-04T12:58:20;25.23;;;14.03;;
5499;SDS011;2772;42.700;23.304;2022-11-04T13:00:59;32.33;;;14.40;;
5499;SDS011;2772;42.700;23.304;2022-11-04T13:03:31;34.20;;;13.67;;
5499;SDS011;2772;42.700;23.304;2022-11-04T13:06:04;28.00;;;13.57;;
5499;SDS011;2772;42.700;23.304;2022-11-04T13:08:37;25.70;;;13.33;;
5499;SDS011;2772;42.700;23.304;2022-11-04T13:11:10;29.30;;;14.63;;
5499;SDS011;2772;42.700;23.304;2022-11-04T13:13:51;31.77;;;15.17;;
5499;SDS011;2772;42.700;23.304;2022-11-04T13:16:23;30.90;;;14.83;;
5499;SDS011;2772;42.700;23.304;2022-11-04T13:18:50;32.90;;;14.80;;
5499;SDS011;2772;42.700;23.304;2022-11-04T13:21:20;31.17;;;14.70;;
5499;SDS011;2772;42.700;23.304;2022-11-04T13:23:53;49.77;;;17.40;;
5499;SDS011;2772;42.700;23.304;2022-11-04T13:26:24;28.80;;;17.03;;
5499;SDS011;2772;42.700;23.304;2022-11-04T13:28:55;30.53;;;16.10;;
5499;SDS011;2772;42.700;23.304;2022-11-04T13:31:31;32.47;;;18.00;;
5499;SDS011;2772;42.700;23.304;2022-11-04T13:34:08;33.35;;;18.02;;
5499;SDS011;2772;42.700;23.304;2022-11-04T13:36:44;34.27;;;16.60;;
5499;SDS011;2772;42.700;23.304;2022-11-04T13:39:17;29.50;;;16.60;;
5499;SDS011;2772;42.700;23.304;2022-11-04T13:42:05;42.13;;;17.10;;
5499;SDS011;2772;42.700;23.304;2022-11-04T13:44:52;31.20;;;15.87;;
5499;SDS011;2772;42.700;23.304;2022-11-04T13:47:22;39.27;;;16.63;;
5499;SDS011;2772;42.700;23.304;2022-11-04T13:49:53;41.40;;;15.60;;
5499;SDS011;2772;42.700;23.304;2022-11-04T13:52:22;25.90;;;15.40;;
5499;SDS011;2772;42.700;23.304;2022-11-04T13:54:52;35.53;;;15.90;;
5499;SDS011;2772;42.700;23.304;2022-11-04T13:57:23;40.27;;;16.57;;
5499;SDS011;2772;42.700;23.304;2022-11-04T14:02:46;36.30;;;15.23;;
5499;SDS011;2772;42.700;23.304;2022-11-04T14:08:28;40.83;;;16.20;;
5499;SDS011;2772;42.700;23.304;2022-11-04T14:11:09;49.93;;;17.47;;
5499;SDS011;2772;42.700;23.304;2022-11-04T14:13:40;27.77;;;15.37;;
5499;SDS011;2772;42.700;23.304;2022-11-04T14:16:12;29.30;;;15.20;;
5499;SDS011;2772;42.700;23.304;2022-11-04T14:22:12;26.73;;;15.23;;
5499;SDS011;2772;42.700;23.304;2022-11-04T14:24:41;35.03;;;17.03;;
5499;SDS011;2772;42.700;23.304;2022-11-04T14:27:21;28.43;;;15.17;;
5499;SDS011;2772;42.700;23.304;2022-11-04T14:29:53;37.10;;;15.97;;
5499;SDS011;2772;42.700;23.304;2022-11-04T14:32:22;33.67;;;17.50;;
5499;SDS011;2772;42.700;23.304;2022-11-04T14:34:56;31.07;;;16.50;;
5499;SDS011;2772;42.700;23.304;2022-11-04T14:37:29;31.07;;;16.03;;
5499;SDS011;2772;42.700;23.304;2022-11-04T14:40:00;26.40;;;15.20;;
5499;SDS011;2772;42.700;23.304;2022-11-04T14:42:47;33.93;;;16.00;;
5499;SDS011;2772;42.700;23.304;2022-11-04T14:45:16;48.23;;;17.27;;
5499;SDS011;2772;42.700;23.304;2022-11-04T14:47:47;33.60;;;16.10;;
5499;SDS011;2772;42.700;23.304;2022-11-04T14:50:18;33.60;;;16.67;;
5499;SDS011;2772;42.700;23.304;2022-11-04T14:52:47;27.70;;;16.10;;
5499;SDS011;2772;42.700;23.304;2022-11-04T14:55:20;29.00;;;15.67;;
5499;SDS011;2772;42.700;23.304;2022-11-04T14:57:49;29.10;;;15.43;;
5499;SDS011;2772;42.700;23.304;2022-11-04T15:05:49;23.97;;;14.87;;
5499;SDS011;2772;42.700;23.304;2022-11-04T15:08:24;37.00;;;16.23;;
5499;SDS011;2772;42.700;23.304;2022-11-04T15:10:57;32.53;;;15.23;;
5499;SDS011;2772;42.700;23.304;2022-11-04T15:13:26;32.37;;;16.90;;
5499;SDS011;2772;42.700;23.304;2022-11-04T15:15:53;28.80;;;15.00;;
5499;SDS011;2772;42.700;23.304;2022-11-04T15:18:24;30.17;;;15.50;;
5499;SDS011;2772;42.700;23.304;2022-11-04T15:20:54;30.57;;;16.60;;
5499;SDS011;2772;42.700;23.304;2022-11-04T15:23:25;30.30;;;15.70;;
5499;SDS011;2772;42.700;23.304;2022-11-04T15:25:53;25.77;;;15.87;;
5499;SDS011;2772;42.700;23.304;2022-11-04T15:28:24;32.10;;;17.53;;
5499;SDS011;2772;42.700;23.304;2022-11-04T15:30:57;29.20;;;16.53;;
5499;SDS011;2772;42.700;23.304;2022-11-04T15:33:25;32.80;;;17.00;;